sensor_id;sensor_type;location;lat;lon;timestamp;P1;durP1;ratioP1;P2;durP2;ratioP2
11496;SDS011;5805;51.542;7.230;2023-02-15T00:00:36;12.70;;;8.50;;
11496;SDS011;5805;51.542;7.230;2023-02-15T00:03:01;14.20;;;9.25;;
11496;SDS011;5805;51.542;7.230;2023-02-15T00:05:27;12.55;;;8.52;;
11496;SDS011;5805;51.542;7.230;2023-02-15T00:07:55;12.88;;;9.18;;
11496;SDS011;5805;51.542;7.230;2023-02-15T00:10:20;13.70;;;9.27;;
11496;SDS011;5805;51.542;7.230;2023-02-15T00:12:46;12.05;;;8.98;;
11496;SDS011;5805;51.542;7.230;2023-02-15T00:15:13;15.50;;;9.18;;
11496;SDS011;5805;51.542;7.230;2023-02-15T00:17:39;12.40;;;9.40;;
11496;SDS011;5805;51.542;7.230;2023-02-15T00:20:05;13.43;;;9.23;;
11496;SDS011;5805;51.542;7.230;2023-02-15T00:22:31;14.60;;;10.23;;
11496;SDS011;5805;51.542;7.230;2023-02-15T00:24:57;12.75;;;9.27;;
11496;SDS011;5805;51.542;7.230;2023-02-15T00:27:23;13.15;;;8.40;;
11496;SDS011;5805;51.542;7.230;2023-02-15T00:29:48;12.18;;;9.50;;
11496;SDS011;5805;51.542;7.230;2023-02-15T00:32:16;16.17;;;9.63;;
11496;SDS011;5805;51.542;7.230;2023-02-15T00:34:41;14.85;;;10.27;;
11496;SDS011;5805;51.542;7.230;2023-02-15T00:37:07;13.85;;;9.23;;
11496;SDS011;5805;51.542;7.230;2023-02-15T00:39:32;12.90;;;9.07;;
11496;SDS011;5805;51.542;7.230;2023-02-15T00:41:58;13.88;;;9.30;;
11496;SDS011;5805;51.542;7.230;2023-02-15T00:44:24;12.00;;;8.75;;
11496;SDS011;5805;51.542;7.230;2023-02-15T00:46:49;12.00;;;8.73;;
11496;SDS011;5805;51.542;7.230;2023-02-15T00:49:16;15.18;;;8.77;;
11496;SDS011;5805;51.542;7.230;2023-02-15T00:51:42;13.23;;;9.23;;
11496;SDS011;5805;51.542;7.230;2023-02-15T00:54:08;12.70;;;9.07;;
11496;SDS011;5805;51.542;7.230;2023-02-15T00:56:33;10.82;;;8.80;;
11496;SDS011;5805;51.542;7.230;2023-02-15T00:58:59;13.95;;;9.10;;
11496;SDS011;5805;51.542;7.230;2023-02-15T01:01:25;13.15;;;8.73;;
11496;SDS011;5805;51.542;7.230;2023-02-15T01:03:50;13.90;;;9.18;;
11496;SDS011;5805;51.542;7.230;2023-02-15T01:06:18;14.75;;;9.32;;
11496;SDS011;5805;51.542;7.230;2023-02-15T01:08:44;13.73;;;9.50;;
11496;SDS011;5805;51.542;7.230;2023-02-15T01:11:11;13.60;;;9.52;;
11496;SDS011;5805;51.542;7.230;2023-02-15T01:13:38;13.10;;;8.98;;
11496;SDS011;5805;51.542;7.230;2023-02-15T01:16:04;14.25;;;9.73;;
11496;SDS011;5805;51.542;7.230;2023-02-15T01:18:29;12.00;;;9.00;;
11496;SDS011;5805;51.542;7.230;2023-02-15T01:20:58;13.23;;;10.30;;
11496;SDS011;5805;51.542;7.230;2023-02-15T01:23:26;15.82;;;9.63;;
11496;SDS011;5805;51.542;7.230;2023-02-15T01:25:52;13.48;;;9.63;;
11496;SDS011;5805;51.542;7.230;2023-02-15T01:28:17;12.75;;;9.63;;
11496;SDS011;5805;51.542;7.230;2023-02-15T01:30:43;13.63;;;9.20;;
11496;SDS011;5805;51.542;7.230;2023-02-15T01:33:09;14.55;;;10.63;;
11496;SDS011;5805;51.542;7.230;2023-02-15T01:35:36;14.27;;;9.80;;
11496;SDS011;5805;51.542;7.230;2023-02-15T01:38:01;15.00;;;10.38;;
11496;SDS011;5805;51.542;7.230;2023-02-15T01:40:28;13.75;;;9.45;;
11496;SDS011;5805;51.542;7.230;2023-02-15T01:42:55;15.93;;;10.15;;
11496;SDS011;5805;51.542;7.230;2023-02-15T01:45:21;12.07;;;9.20;;
11496;SDS011;5805;51.542;7.230;2023-02-15T01:47:50;14.65;;;9.50;;
11496;SDS011;5805;51.542;7.230;2023-02-15T01:50:20;13.75;;;9.63;;
11496;SDS011;5805;51.542;7.230;2023-02-15T01:52:52;15.00;;;10.32;;
11496;SDS011;5805;51.542;7.230;2023-02-15T01:55:23;12.90;;;9.70;;
11496;SDS011;5805;51.542;7.230;2023-02-15T01:57:54;14.93;;;9.85;;
11496;SDS011;5805;51.542;7.230;2023-02-15T02:00:20;13.23;;;9.45;;
11496;SDS011;5805;51.542;7.230;2023-02-15T02:02:46;15.15;;;9.77;;
11496;SDS011;5805;51.542;7.230;2023-02-15T02:05:14;14.30;;;9.50;;
11496;SDS011;5805;51.542;7.230;2023-02-15T02:07:41;14.90;;;10.52;;
11496;SDS011;5805;51.542;7.230;2023-02-15T02:10:10;13.40;;;9.20;;
11496;SDS011;5805;51.542;7.230;2023-02-15T02:12:37;12.75;;;8.80;;
11496;SDS011;5805;51.542;7.230;2023-02-15T02:15:08;14.95;;;9.82;;
11496;SDS011;5805;51.542;7.230;2023-02-15T02:17:37;13.60;;;9.60;;
11496;SDS011;5805;51.542;7.230;2023-02-15T02:20:16;12.95;;;8.98;;
11496;SDS011;5805;51.542;7.230;2023-02-15T02:28:53;10.52;;;8.38;;
11496;SDS011;5805;51.542;7.230;2023-02-15T02:32:01;14.00;;;9.93;;
11496;SDS011;5805;51.542;7.230;2023-02-15T02:34:53;15.23;;;9.73;;
11496;SDS011;5805;51.542;7.230;2023-02-15T02:37:23;15.85;;;10.38;;
11496;SDS011;5805;51.542;7.230;2023-02-15T02:39:54;14.60;;;10.07;;
11496;SDS011;5805;51.542;7.230;2023-02-15T02:42:25;12.33;;;8.90;;
11496;SDS011;5805;51.542;7.230;2023-02-15T02:44:57;14.60;;;10.00;;
11496;SDS011;5805;51.542;7.230;2023-02-15T02:47:29;13.55;;;9.63;;
11496;SDS011;5805;51.542;7.230;2023-02-15T02:50:00;15.18;;;9.63;;
11496;SDS011;5805;51.542;7.230;2023-02-15T02:52:35;15.82;;;10.50;;
11496;SDS011;5805;51.542;7.230;2023-02-15T02:55:06;15.63;;;9.90;;
11496;SDS011;5805;51.542;7.230;2023-02-15T02:57:36;13.47;;;9.37;;
11496;SDS011;5805;51.542;7.230;2023-02-15T03:00:07;14.55;;;9.35;;
11496;SDS011;5805;51.542;7.230;2023-02-15T03:02:35;13.13;;;9.93;;
11496;SDS011;5805;51.542;7.230;2023-02-15T03:05:07;14.80;;;9.48;;
11496;SDS011;5805;51.542;7.230;2023-02-15T03:07:40;14.17;;;9.83;;
11496;SDS011;5805;51.542;7.230;2023-02-15T03:10:08;12.27;;;8.90;;
11496;SDS011;5805;51.542;7.230;2023-02-15T03:12:36;19.85;;;9.73;;
11496;SDS011;5805;51.542;7.230;2023-02-15T03:15:05;13.47;;;8.87;;
11496;SDS011;5805;51.542;7.230;2023-02-15T03:17:35;13.20;;;9.45;;
11496;SDS011;5805;51.542;7.230;2023-02-15T03:20:04;15.77;;;9.97;;
11496;SDS011;5805;51.542;7.230;2023-02-15T03:22:34;15.03;;;9.93;;
11496;SDS011;5805;51.542;7.230;2023-02-15T03:25:04;13.07;;;9.47;;
11496;SDS011;5805;51.542;7.230;2023-02-15T03:27:36;14.30;;;9.90;;
11496;SDS011;5805;51.542;7.230;2023-02-15T03:30:06;13.50;;;9.40;;
11496;SDS011;5805;51.542;7.230;2023-02-15T03:32:33;14.07;;;9.73;;
11496;SDS011;5805;51.542;7.230;2023-02-15T03:35:02;13.00;;;9.07;;
11496;SDS011;5805;51.542;7.230;2023-02-15T03:37:31;14.68;;;10.52;;
11496;SDS011;5805;51.542;7.230;2023-02-15T03:40:00;16.43;;;9.90;;
11496;SDS011;5805;51.542;7.230;2023-02-15T03:42:32;16.13;;;10.70;;
11496;SDS011;5805;51.542;7.230;2023-02-15T03:45:03;14.90;;;10.07;;
11496;SDS011;5805;51.542;7.230;2023-02-15T03:47:35;14.00;;;9.87;;
11496;SDS011;5805;51.542;7.230;2023-02-15T03:50:04;12.60;;;9.60;;
11496;SDS011;5805;51.542;7.230;2023-02-15T03:52:33;17.17;;;9.90;;
11496;SDS011;5805;51.542;7.230;2023-02-15T03:55:00;15.10;;;10.60;;
11496;SDS011;5805;51.542;7.230;2023-02-15T03:57:27;14.13;;;9.97;;
11496;SDS011;5805;51.542;7.230;2023-02-15T03:59:54;14.60;;;9.93;;
11496;SDS011;5805;51.542;7.230;2023-02-15T04:02:20;12.77;;;9.53;;
11496;SDS011;5805;51.542;7.230;2023-02-15T04:04:49;13.77;;;9.40;;
11496;SDS011;5805;51.542;7.230;2023-02-15T04:07:15;15.60;;;10.23;;
11496;SDS011;5805;51.542;7.230;2023-02-15T04:09:42;13.70;;;9.83;;
11496;SDS011;5805;51.542;7.230;2023-02-15T04:12:07;14.23;;;10.03;;
11496;SDS011;5805;51.542;7.230;2023-02-15T04:14:33;15.33;;;10.37;;
11496;SDS011;5805;51.542;7.230;2023-02-15T04:16:59;15.10;;;10.13;;
11496;SDS011;5805;51.542;7.230;2023-02-15T04:19:24;15.30;;;10.43;;
11496;SDS011;5805;51.542;7.230;2023-02-15T04:21:50;14.10;;;10.13;;
11496;SDS011;5805;51.542;7.230;2023-02-15T04:24:16;14.47;;;10.47;;
11496;SDS011;5805;51.542;7.230;2023-02-15T04:26:43;13.63;;;10.13;;
11496;SDS011;5805;51.542;7.230;2023-02-15T04:29:09;15.57;;;10.67;;
11496;SDS011;5805;51.542;7.230;2023-02-15T04:31:34;14.57;;;10.30;;
11496;SDS011;5805;51.542;7.230;2023-02-15T04:34:00;14.97;;;10.07;;
11496;SDS011;5805;51.542;7.230;2023-02-15T04:36:26;14.33;;;10.43;;
11496;SDS011;5805;51.542;7.230;2023-02-15T04:38:52;15.80;;;10.13;;
11496;SDS011;5805;51.542;7.230;2023-02-15T04:41:17;14.67;;;10.60;;
11496;SDS011;5805;51.542;7.230;2023-02-15T04:43:44;13.67;;;9.93;;
11496;SDS011;5805;51.542;7.230;2023-02-15T04:46:10;15.30;;;10.30;;
11496;SDS011;5805;51.542;7.230;2023-02-15T04:48:36;15.87;;;10.20;;
11496;SDS011;5805;51.542;7.230;2023-02-15T04:51:04;15.87;;;10.83;;
11496;SDS011;5805;51.542;7.230;2023-02-15T04:53:30;17.30;;;10.93;;
11496;SDS011;5805;51.542;7.230;2023-02-15T04:55:56;16.80;;;11.20;;
11496;SDS011;5805;51.542;7.230;2023-02-15T04:58:22;16.17;;;11.23;;
11496;SDS011;5805;51.542;7.230;2023-02-15T05:00:49;18.50;;;10.90;;
11496;SDS011;5805;51.542;7.230;2023-02-15T05:03:14;15.30;;;10.70;;
11496;SDS011;5805;51.542;7.230;2023-02-15T05:05:40;16.77;;;11.47;;
11496;SDS011;5805;51.542;7.230;2023-02-15T05:08:06;15.50;;;11.47;;
11496;SDS011;5805;51.542;7.230;2023-02-15T05:10:31;16.30;;;11.20;;
11496;SDS011;5805;51.542;7.230;2023-02-15T05:12:57;15.70;;;11.00;;
11496;SDS011;5805;51.542;7.230;2023-02-15T05:15:23;17.23;;;10.90;;
11496;SDS011;5805;51.542;7.230;2023-02-15T05:17:50;16.27;;;11.53;;
11496;SDS011;5805;51.542;7.230;2023-02-15T05:20:15;14.07;;;10.20;;
11496;SDS011;5805;51.542;7.230;2023-02-15T05:22:41;17.93;;;11.00;;
11496;SDS011;5805;51.542;7.230;2023-02-15T05:25:07;15.80;;;10.60;;
11496;SDS011;5805;51.542;7.230;2023-02-15T05:27:34;16.37;;;10.90;;
11496;SDS011;5805;51.542;7.230;2023-02-15T05:29:59;16.03;;;11.03;;
11496;SDS011;5805;51.542;7.230;2023-02-15T05:32:25;17.77;;;11.37;;
11496;SDS011;5805;51.542;7.230;2023-02-15T05:34:52;18.50;;;11.53;;
11496;SDS011;5805;51.542;7.230;2023-02-15T05:37:18;17.07;;;11.40;;
11496;SDS011;5805;51.542;7.230;2023-02-15T05:39:43;16.63;;;12.13;;
11496;SDS011;5805;51.542;7.230;2023-02-15T05:42:09;17.83;;;12.27;;
11496;SDS011;5805;51.542;7.230;2023-02-15T05:44:35;18.27;;;12.07;;
11496;SDS011;5805;51.542;7.230;2023-02-15T05:47:00;17.13;;;11.57;;
11496;SDS011;5805;51.542;7.230;2023-02-15T05:49:26;17.00;;;11.60;;
11496;SDS011;5805;51.542;7.230;2023-02-15T05:51:53;16.53;;;11.50;;
11496;SDS011;5805;51.542;7.230;2023-02-15T05:54:19;17.73;;;11.33;;
11496;SDS011;5805;51.542;7.230;2023-02-15T05:56:44;18.53;;;11.43;;
11496;SDS011;5805;51.542;7.230;2023-02-15T05:59:10;17.57;;;11.80;;
11496;SDS011;5805;51.542;7.230;2023-02-15T06:01:36;17.77;;;12.27;;
11496;SDS011;5805;51.542;7.230;2023-02-15T06:04:01;16.60;;;11.53;;
11496;SDS011;5805;51.542;7.230;2023-02-15T06:06:27;18.53;;;11.93;;
11496;SDS011;5805;51.542;7.230;2023-02-15T06:08:54;17.93;;;12.77;;
11496;SDS011;5805;51.542;7.230;2023-02-15T06:11:20;17.87;;;11.97;;
11496;SDS011;5805;51.542;7.230;2023-02-15T06:13:45;17.43;;;12.23;;
11496;SDS011;5805;51.542;7.230;2023-02-15T06:16:11;17.60;;;12.13;;
11496;SDS011;5805;51.542;7.230;2023-02-15T06:18:37;19.47;;;11.67;;
11496;SDS011;5805;51.542;7.230;2023-02-15T06:21:02;15.90;;;10.93;;
11496;SDS011;5805;51.542;7.230;2023-02-15T06:23:28;17.43;;;11.27;;
11496;SDS011;5805;51.542;7.230;2023-02-15T06:25:55;17.13;;;11.80;;
11496;SDS011;5805;51.542;7.230;2023-02-15T06:28:21;19.13;;;12.60;;
11496;SDS011;5805;51.542;7.230;2023-02-15T06:30:46;16.93;;;11.97;;
11496;SDS011;5805;51.542;7.230;2023-02-15T06:33:12;17.07;;;12.10;;
11496;SDS011;5805;51.542;7.230;2023-02-15T06:35:38;18.20;;;12.07;;
11496;SDS011;5805;51.542;7.230;2023-02-15T06:38:03;15.53;;;11.67;;
11496;SDS011;5805;51.542;7.230;2023-02-15T06:40:29;17.33;;;11.17;;
11496;SDS011;5805;51.542;7.230;2023-02-15T06:42:56;17.23;;;12.50;;
11496;SDS011;5805;51.542;7.230;2023-02-15T06:45:22;17.33;;;12.00;;
11496;SDS011;5805;51.542;7.230;2023-02-15T06:47:47;17.50;;;12.23;;
11496;SDS011;5805;51.542;7.230;2023-02-15T09:56:09;23.00;;;16.10;;
11496;SDS011;5805;51.542;7.230;2023-02-15T09:58:45;27.90;;;15.82;;
11496;SDS011;5805;51.542;7.230;2023-02-15T10:01:19;26.10;;;19.20;;
11496;SDS011;5805;51.542;7.230;2023-02-15T10:04:03;27.83;;;17.25;;
11496;SDS011;5805;51.542;7.230;2023-02-15T10:06:48;29.08;;;17.48;;
11496;SDS011;5805;51.542;7.230;2023-02-15T10:09:24;28.85;;;17.60;;
11496;SDS011;5805;51.542;7.230;2023-02-15T10:12:04;31.17;;;21.73;;
11496;SDS011;5805;51.542;7.230;2023-02-15T10:17:41;27.85;;;18.83;;
11496;SDS011;5805;51.542;7.230;2023-02-15T10:20:23;26.05;;;17.75;;
11496;SDS011;5805;51.542;7.230;2023-02-15T10:23:01;31.38;;;15.30;;
11496;SDS011;5805;51.542;7.230;2023-02-15T10:25:43;23.95;;;14.13;;
11496;SDS011;5805;51.542;7.230;2023-02-15T10:28:17;21.65;;;14.25;;
11496;SDS011;5805;51.542;7.230;2023-02-15T10:30:46;22.88;;;14.48;;
11496;SDS011;5805;51.542;7.230;2023-02-15T10:33:14;25.02;;;14.23;;
11496;SDS011;5805;51.542;7.230;2023-02-15T10:35:51;25.90;;;14.57;;
11496;SDS011;5805;51.542;7.230;2023-02-15T10:38:25;22.50;;;14.50;;
11496;SDS011;5805;51.542;7.230;2023-02-15T10:41:00;23.30;;;14.57;;
11496;SDS011;5805;51.542;7.230;2023-02-15T10:43:43;22.50;;;13.95;;
11496;SDS011;5805;51.542;7.230;2023-02-15T10:46:31;20.23;;;12.95;;
11496;SDS011;5805;51.542;7.230;2023-02-15T10:52:14;19.42;;;13.10;;
11496;SDS011;5805;51.542;7.230;2023-02-15T10:54:49;20.15;;;12.68;;
11496;SDS011;5805;51.542;7.230;2023-02-15T10:57:24;19.08;;;11.25;;
11496;SDS011;5805;51.542;7.230;2023-02-15T10:59:59;17.63;;;11.57;;
11496;SDS011;5805;51.542;7.230;2023-02-15T11:02:36;23.08;;;11.88;;
11496;SDS011;5805;51.542;7.230;2023-02-15T11:05:25;17.33;;;11.27;;
11496;SDS011;5805;51.542;7.230;2023-02-15T11:08:00;16.48;;;10.52;;
11496;SDS011;5805;51.542;7.230;2023-02-15T11:10:32;16.58;;;10.55;;
11496;SDS011;5805;51.542;7.230;2023-02-15T11:13:03;19.48;;;10.43;;
11496;SDS011;5805;51.542;7.230;2023-02-15T11:52:45;14.75;;;7.97;;
11496;SDS011;5805;51.542;7.230;2023-02-15T11:55:11;13.40;;;8.32;;
11496;SDS011;5805;51.542;7.230;2023-02-15T11:57:41;16.00;;;8.35;;
11496;SDS011;5805;51.542;7.230;2023-02-15T15:47:03;15.00;;;7.13;;
11496;SDS011;5805;51.542;7.230;2023-02-15T15:49:43;17.60;;;8.65;;
11496;SDS011;5805;51.542;7.230;2023-02-15T15:52:12;18.08;;;7.90;;
11496;SDS011;5805;51.542;7.230;2023-02-15T17:24:13;14.57;;;7.90;;
11496;SDS011;5805;51.542;7.230;2023-02-15T17:26:42;16.38;;;9.55;;
11496;SDS011;5805;51.542;7.230;2023-02-15T17:29:10;12.68;;;8.07;;
11496;SDS011;5805;51.542;7.230;2023-02-15T17:31:45;19.15;;;10.30;;
11496;SDS011;5805;51.542;7.230;2023-02-15T23:06:45;18.30;;;12.95;;
11496;SDS011;5805;51.542;7.230;2023-02-15T23:09:12;17.65;;;12.38;;
11496;SDS011;5805;51.542;7.230;2023-02-15T23:11:38;20.73;;;13.07;;
11496;SDS011;5805;51.542;7.230;2023-02-15T23:14:04;20.27;;;12.25;;
11496;SDS011;5805;51.542;7.230;2023-02-15T23:16:30;19.02;;;12.15;;
11496;SDS011;5805;51.542;7.230;2023-02-15T23:18:56;18.05;;;12.73;;
11496;SDS011;5805;51.542;7.230;2023-02-15T23:21:23;18.13;;;11.93;;
11496;SDS011;5805;51.542;7.230;2023-02-15T23:23:53;21.02;;;12.90;;
11496;SDS011;5805;51.542;7.230;2023-02-15T23:26:20;20.45;;;13.23;;
11496;SDS011;5805;51.542;7.230;2023-02-15T23:28:48;21.40;;;12.98;;
11496;SDS011;5805;51.542;7.230;2023-02-15T23:31:15;19.33;;;12.57;;
11496;SDS011;5805;51.542;7.230;2023-02-15T23:33:42;19.40;;;12.88;;
11496;SDS011;5805;51.542;7.230;2023-02-15T23:36:12;22.38;;;13.30;;
11496;SDS011;5805;51.542;7.230;2023-02-15T23:38:50;19.90;;;12.70;;
11496;SDS011;5805;51.542;7.230;2023-02-15T23:41:16;21.77;;;13.45;;
11496;SDS011;5805;51.542;7.230;2023-02-15T23:43:46;19.02;;;12.63;;
11496;SDS011;5805;51.542;7.230;2023-02-15T23:46:18;17.02;;;12.07;;
11496;SDS011;5805;51.542;7.230;2023-02-15T23:48:56;21.65;;;13.95;;
11496;SDS011;5805;51.542;7.230;2023-02-15T23:51:26;19.33;;;13.02;;
11496;SDS011;5805;51.542;7.230;2023-02-15T23:53:55;17.70;;;12.63;;
11496;SDS011;5805;51.542;7.230;2023-02-15T23:56:21;20.95;;;12.60;;
11496;SDS011;5805;51.542;7.230;2023-02-15T23:58:47;21.27;;;14.25;;
